sensor_id;sensor_type;location;lat;lon;timestamp;temperature;humidity
1680;DHT22;838;51.794;12.258;2022-08-19T00:00:26;21.00;99.20
1680;DHT22;838;51.794;12.258;2022-08-19T00:02:53;21.00;99.30
1680;DHT22;838;51.794;12.258;2022-08-19T00:05:20;21.00;99.10
1680;DHT22;838;51.794;12.258;2022-08-19T00:07:48;21.00;99.30
1680;DHT22;838;51.794;12.258;2022-08-19T00:10:16;20.90;99.30
1680;DHT22;838;51.794;12.258;2022-08-19T00:12:42;21.00;99.30
1680;DHT22;838;51.794;12.258;2022-08-19T00:15:10;21.00;99.10
1680;DHT22;838;51.794;12.258;2022-08-19T00:17:40;21.00;99.20
1680;DHT22;838;51.794;12.258;2022-08-19T00:20:08;20.90;99.50
1680;DHT22;838;51.794;12.258;2022-08-19T00:22:37;20.90;99.80
1680;DHT22;838;51.794;12.258;2022-08-19T00:25:04;20.80;99.90
1680;DHT22;838;51.794;12.258;2022-08-19T00:27:30;20.80;99.90
1680;DHT22;838;51.794;12.258;2022-08-19T00:29:56;20.80;99.90
1680;DHT22;838;51.794;12.258;2022-08-19T00:32:22;20.90;99.90
1680;DHT22;838;51.794;12.258;2022-08-19T00:34:48;21.00;99.90
1680;DHT22;838;51.794;12.258;2022-08-19T00:37:14;20.90;99.80
1680;DHT22;838;51.794;12.258;2022-08-19T00:39:39;21.00;99.90
1680;DHT22;838;51.794;12.258;2022-08-19T00:42:05;21.00;99.70
1680;DHT22;838;51.794;12.258;2022-08-19T00:44:32;21.00;99.70
1680;DHT22;838;51.794;12.258;2022-08-19T00:46:58;20.90;99.70
1680;DHT22;838;51.794;12.258;2022-08-19T00:49:41;20.90;99.80
1680;DHT22;838;51.794;12.258;2022-08-19T00:52:15;20.90;99.90
1680;DHT22;838;51.794;12.258;2022-08-19T00:54:43;21.00;99.90
1680;DHT22;838;51.794;12.258;2022-08-19T00:57:14;21.00;99.20
1680;DHT22;838;51.794;12.258;2022-08-19T00:59:42;21.00;99.20
1680;DHT22;838;51.794;12.258;2022-08-19T01:02:11;21.00;98.90
1680;DHT22;838;51.794;12.258;2022-08-19T01:04:37;21.00;99.00
1680;DHT22;838;51.794;12.258;2022-08-19T01:07:03;21.00;98.90
1680;DHT22;838;51.794;12.258;2022-08-19T01:09:29;21.00;98.80
1680;DHT22;838;51.794;12.258;2022-08-19T01:11:56;21.00;98.70
1680;DHT22;838;51.794;12.258;2022-08-19T01:14:21;21.10;98.60
1680;DHT22;838;51.794;12.258;2022-08-19T01:16:48;21.10;98.30
1680;DHT22;838;51.794;12.258;2022-08-19T01:19:28;21.10;98.30
1680;DHT22;838;51.794;12.258;2022-08-19T01:22:01;21.20;98.50
1680;DHT22;838;51.794;12.258;2022-08-19T01:24:28;21.20;98.00
1680;DHT22;838;51.794;12.258;2022-08-19T01:26:53;21.30;97.60
1680;DHT22;838;51.794;12.258;2022-08-19T01:29:20;21.20;97.70
1680;DHT22;838;51.794;12.258;2022-08-19T01:31:46;21.20;98.00
1680;DHT22;838;51.794;12.258;2022-08-19T01:34:12;21.20;97.90
1680;DHT22;838;51.794;12.258;2022-08-19T01:36:43;21.20;97.70
1680;DHT22;838;51.794;12.258;2022-08-19T01:39:16;21.10;98.10
1680;DHT22;838;51.794;12.258;2022-08-19T01:41:47;21.10;98.10
1680;DHT22;838;51.794;12.258;2022-08-19T01:44:14;21.00;98.40
1680;DHT22;838;51.794;12.258;2022-08-19T01:46:41;21.00;98.80
1680;DHT22;838;51.794;12.258;2022-08-19T01:49:10;20.80;99.50
1680;DHT22;838;51.794;12.258;2022-08-19T01:51:36;20.80;99.90
1680;DHT22;838;51.794;12.258;2022-08-19T01:54:03;20.60;99.90
1680;DHT22;838;51.794;12.258;2022-08-19T01:56:28;20.60;99.90
1680;DHT22;838;51.794;12.258;2022-08-19T01:58:58;20.50;99.90
1680;DHT22;838;51.794;12.258;2022-08-19T02:01:25;20.40;99.90
1680;DHT22;838;51.794;12.258;2022-08-19T02:04:00;20.40;99.90
1680;DHT22;838;51.794;12.258;2022-08-19T02:06:26;20.40;99.90
1680;DHT22;838;51.794;12.258;2022-08-19T02:08:56;20.40;99.90
1680;DHT22;838;51.794;12.258;2022-08-19T02:11:27;20.30;99.90
1680;DHT22;838;51.794;12.258;2022-08-19T02:13:54;20.30;99.90
1680;DHT22;838;51.794;12.258;2022-08-19T02:16:20;20.30;99.90
1680;DHT22;838;51.794;12.258;2022-08-19T02:18:47;20.30;99.90
1680;DHT22;838;51.794;12.258;2022-08-19T02:21:15;20.40;99.90
1680;DHT22;838;51.794;12.258;2022-08-19T02:23:42;20.30;99.90
1680;DHT22;838;51.794;12.258;2022-08-19T02:26:07;20.30;99.90
1680;DHT22;838;51.794;12.258;2022-08-19T02:28:33;20.30;99.90
1680;DHT22;838;51.794;12.258;2022-08-19T02:30:59;20.30;99.90
1680;DHT22;838;51.794;12.258;2022-08-19T02:33:26;20.30;99.90
1680;DHT22;838;51.794;12.258;2022-08-19T02:35:52;20.30;99.90
1680;DHT22;838;51.794;12.258;2022-08-19T02:38:18;20.30;99.90
1680;DHT22;838;51.794;12.258;2022-08-19T02:41:03;20.30;99.90
1680;DHT22;838;51.794;12.258;2022-08-19T02:43:31;20.20;99.90
1680;DHT22;838;51.794;12.258;2022-08-19T02:45:57;20.20;99.90
1680;DHT22;838;51.794;12.258;2022-08-19T02:48:25;20.20;99.90
1680;DHT22;838;51.794;12.258;2022-08-19T02:50:52;20.20;99.90
1680;DHT22;838;51.794;12.258;2022-08-19T02:53:21;20.10;99.90
1680;DHT22;838;51.794;12.258;2022-08-19T02:55:48;20.10;99.90
1680;DHT22;838;51.794;12.258;2022-08-19T02:58:14;20.00;99.90
1680;DHT22;838;51.794;12.258;2022-08-19T03:00:50;20.00;99.90
1680;DHT22;838;51.794;12.258;2022-08-19T03:03:18;20.00;99.90
1680;DHT22;838;51.794;12.258;2022-08-19T03:05:44;20.00;99.90
1680;DHT22;838;51.794;12.258;2022-08-19T03:08:11;20.00;99.90
1680;DHT22;838;51.794;12.258;2022-08-19T03:10:47;20.00;99.90
1680;DHT22;838;51.794;12.258;2022-08-19T03:13:14;20.00;99.90
1680;DHT22;838;51.794;12.258;2022-08-19T03:15:45;20.00;99.90
1680;DHT22;838;51.794;12.258;2022-08-19T03:18:12;20.00;99.90
1680;DHT22;838;51.794;12.258;2022-08-19T03:20:49;20.00;99.90
1680;DHT22;838;51.794;12.258;2022-08-19T03:23:16;20.00;99.90
1680;DHT22;838;51.794;12.258;2022-08-19T03:25:45;20.00;99.90
1680;DHT22;838;51.794;12.258;2022-08-19T03:28:12;20.00;99.90
1680;DHT22;838;51.794;12.258;2022-08-19T03:30:40;20.10;99.90
1680;DHT22;838;51.794;12.258;2022-08-19T03:33:07;20.10;99.90
1680;DHT22;838;51.794;12.258;2022-08-19T03:35:33;20.10;99.90
1680;DHT22;838;51.794;12.258;2022-08-19T03:38:03;20.10;99.90
1680;DHT22;838;51.794;12.258;2022-08-19T03:40:29;20.20;99.90
1680;DHT22;838;51.794;12.258;2022-08-19T03:42:56;20.20;99.90
1680;DHT22;838;51.794;12.258;2022-08-19T03:45:23;20.30;99.90
1680;DHT22;838;51.794;12.258;2022-08-19T03:47:49;20.30;99.90
1680;DHT22;838;51.794;12.258;2022-08-19T03:50:15;20.30;99.90
1680;DHT22;838;51.794;12.258;2022-08-19T03:52:50;20.40;99.90
1680;DHT22;838;51.794;12.258;2022-08-19T03:55:25;20.40;99.90
1680;DHT22;838;51.794;12.258;2022-08-19T03:57:51;20.40;99.90
1680;DHT22;838;51.794;12.258;2022-08-19T04:00:17;20.40;99.90
1680;DHT22;838;51.794;12.258;2022-08-19T04:02:45;20.50;99.90
1680;DHT22;838;51.794;12.258;2022-08-19T04:05:11;20.60;99.90
1680;DHT22;838;51.794;12.258;2022-08-19T04:07:39;20.60;99.90
1680;DHT22;838;51.794;12.258;2022-08-19T04:10:05;20.60;99.90
1680;DHT22;838;51.794;12.258;2022-08-19T04:12:31;20.70;99.90
1680;DHT22;838;51.794;12.258;2022-08-19T04:14:57;20.70;99.90
1680;DHT22;838;51.794;12.258;2022-08-19T04:17:23;20.70;99.90
1680;DHT22;838;51.794;12.258;2022-08-19T04:19:52;20.70;99.90
1680;DHT22;838;51.794;12.258;2022-08-19T04:22:24;20.80;99.90
1680;DHT22;838;51.794;12.258;2022-08-19T04:24:49;20.90;99.90
1680;DHT22;838;51.794;12.258;2022-08-19T04:27:15;21.00;99.90
1680;DHT22;838;51.794;12.258;2022-08-19T04:32:08;21.10;99.90
1680;DHT22;838;51.794;12.258;2022-08-19T04:34:37;21.00;99.90
1680;DHT22;838;51.794;12.258;2022-08-19T04:37:06;21.00;99.90
1680;DHT22;838;51.794;12.258;2022-08-19T04:39:41;20.90;99.90
1680;DHT22;838;51.794;12.258;2022-08-19T04:42:25;21.00;99.90
1680;DHT22;838;51.794;12.258;2022-08-19T04:45:08;21.10;99.90
1680;DHT22;838;51.794;12.258;2022-08-19T04:47:37;21.10;99.90
1680;DHT22;838;51.794;12.258;2022-08-19T04:50:03;21.10;99.90
1680;DHT22;838;51.794;12.258;2022-08-19T04:52:32;21.00;99.90
1680;DHT22;838;51.794;12.258;2022-08-19T04:54:58;20.90;99.90
1680;DHT22;838;51.794;12.258;2022-08-19T04:57:24;20.80;99.90
1680;DHT22;838;51.794;12.258;2022-08-19T04:59:55;20.90;99.90
1680;DHT22;838;51.794;12.258;2022-08-19T05:02:21;21.00;99.90
1680;DHT22;838;51.794;12.258;2022-08-19T05:04:57;21.10;99.90
1680;DHT22;838;51.794;12.258;2022-08-19T05:07:25;21.00;99.90
1680;DHT22;838;51.794;12.258;2022-08-19T05:09:50;20.90;99.90
1680;DHT22;838;51.794;12.258;2022-08-19T05:12:17;20.90;99.90
1680;DHT22;838;51.794;12.258;2022-08-19T05:14:44;20.80;99.90
1680;DHT22;838;51.794;12.258;2022-08-19T05:17:11;20.80;99.90
1680;DHT22;838;51.794;12.258;2022-08-19T05:19:37;20.80;99.90
1680;DHT22;838;51.794;12.258;2022-08-19T05:22:21;20.70;99.90
1680;DHT22;838;51.794;12.258;2022-08-19T05:25:09;20.50;99.90
1680;DHT22;838;51.794;12.258;2022-08-19T05:27:35;20.50;99.90
1680;DHT22;838;51.794;12.258;2022-08-19T05:30:01;20.60;99.90
1680;DHT22;838;51.794;12.258;2022-08-19T05:32:27;20.70;99.90
1680;DHT22;838;51.794;12.258;2022-08-19T05:34:53;20.70;99.90
1680;DHT22;838;51.794;12.258;2022-08-19T05:37:22;20.80;99.90
1680;DHT22;838;51.794;12.258;2022-08-19T05:39:48;20.80;99.90
1680;DHT22;838;51.794;12.258;2022-08-19T05:42:15;20.80;99.90
1680;DHT22;838;51.794;12.258;2022-08-19T05:44:42;20.80;99.90
1680;DHT22;838;51.794;12.258;2022-08-19T05:47:13;20.80;99.90
1680;DHT22;838;51.794;12.258;2022-08-19T05:49:40;20.80;99.90
1680;DHT22;838;51.794;12.258;2022-08-19T05:52:09;20.90;99.90
1680;DHT22;838;51.794;12.258;2022-08-19T05:54:38;20.80;99.90
1680;DHT22;838;51.794;12.258;2022-08-19T05:57:06;20.80;99.90
1680;DHT22;838;51.794;12.258;2022-08-19T05:59:32;20.70;99.90
1680;DHT22;838;51.794;12.258;2022-08-19T06:02:01;20.60;99.90
1680;DHT22;838;51.794;12.258;2022-08-19T06:04:28;20.60;99.90
1680;DHT22;838;51.794;12.258;2022-08-19T06:06:55;20.60;99.90
1680;DHT22;838;51.794;12.258;2022-08-19T06:09:23;20.50;99.90
1680;DHT22;838;51.794;12.258;2022-08-19T06:11:57;20.50;99.90
1680;DHT22;838;51.794;12.258;2022-08-19T06:14:27;20.40;99.90
1680;DHT22;838;51.794;12.258;2022-08-19T06:16:53;20.40;99.90
1680;DHT22;838;51.794;12.258;2022-08-19T06:19:21;20.40;99.90
1680;DHT22;838;51.794;12.258;2022-08-19T06:21:49;20.30;99.90
1680;DHT22;838;51.794;12.258;2022-08-19T06:24:18;20.30;99.90
1680;DHT22;838;51.794;12.258;2022-08-19T06:26:47;20.40;99.90
1680;DHT22;838;51.794;12.258;2022-08-19T06:29:14;20.30;99.90
1680;DHT22;838;51.794;12.258;2022-08-19T06:31:46;20.40;99.90
1680;DHT22;838;51.794;12.258;2022-08-19T06:34:14;20.40;99.90
1680;DHT22;838;51.794;12.258;2022-08-19T06:36:43;20.40;99.90
1680;DHT22;838;51.794;12.258;2022-08-19T06:39:13;20.40;99.90
1680;DHT22;838;51.794;12.258;2022-08-19T06:41:42;20.50;99.90
1680;DHT22;838;51.794;12.258;2022-08-19T06:44:08;20.40;99.90
1680;DHT22;838;51.794;12.258;2022-08-19T06:46:35;20.40;99.90
1680;DHT22;838;51.794;12.258;2022-08-19T06:49:01;20.40;99.90
1680;DHT22;838;51.794;12.258;2022-08-19T06:51:28;20.40;99.90
1680;DHT22;838;51.794;12.258;2022-08-19T06:53:55;20.40;99.90
1680;DHT22;838;51.794;12.258;2022-08-19T06:56:24;20.40;99.90
1680;DHT22;838;51.794;12.258;2022-08-19T06:58:55;20.30;99.90
1680;DHT22;838;51.794;12.258;2022-08-19T07:01:21;20.30;99.90
1680;DHT22;838;51.794;12.258;2022-08-19T07:03:46;20.20;99.90
1680;DHT22;838;51.794;12.258;2022-08-19T07:06:15;20.20;99.90
1680;DHT22;838;51.794;12.258;2022-08-19T07:08:44;20.20;99.90
1680;DHT22;838;51.794;12.258;2022-08-19T07:11:13;20.10;99.90
1680;DHT22;838;51.794;12.258;2022-08-19T07:13:40;20.10;99.90
1680;DHT22;838;51.794;12.258;2022-08-19T07:16:14;20.10;99.90
1680;DHT22;838;51.794;12.258;2022-08-19T07:18:40;20.10;99.90
1680;DHT22;838;51.794;12.258;2022-08-19T07:21:18;20.10;99.90
1680;DHT22;838;51.794;12.258;2022-08-19T07:23:45;20.00;99.90
1680;DHT22;838;51.794;12.258;2022-08-19T07:28:40;20.10;99.90
1680;DHT22;838;51.794;12.258;2022-08-19T07:31:07;20.10;99.90
1680;DHT22;838;51.794;12.258;2022-08-19T07:33:33;20.20;99.90
1680;DHT22;838;51.794;12.258;2022-08-19T07:36:01;20.30;99.90
1680;DHT22;838;51.794;12.258;2022-08-19T07:38:26;20.30;99.90
1680;DHT22;838;51.794;12.258;2022-08-19T07:40:52;20.40;99.90
1680;DHT22;838;51.794;12.258;2022-08-19T07:43:19;20.40;99.90
1680;DHT22;838;51.794;12.258;2022-08-19T07:45:46;20.50;99.90
1680;DHT22;838;51.794;12.258;2022-08-19T07:48:12;20.60;99.90
1680;DHT22;838;51.794;12.258;2022-08-19T07:50:38;20.60;99.90
1680;DHT22;838;51.794;12.258;2022-08-19T07:53:03;20.70;99.90
1680;DHT22;838;51.794;12.258;2022-08-19T07:55:29;20.90;99.90
1680;DHT22;838;51.794;12.258;2022-08-19T07:57:55;20.90;99.90
1680;DHT22;838;51.794;12.258;2022-08-19T08:00:21;20.80;99.90
1680;DHT22;838;51.794;12.258;2022-08-19T08:02:47;21.00;99.90
1680;DHT22;838;51.794;12.258;2022-08-19T08:05:13;21.00;99.80
1680;DHT22;838;51.794;12.258;2022-08-19T08:07:57;21.10;99.60
1680;DHT22;838;51.794;12.258;2022-08-19T08:10:41;21.00;99.40
1680;DHT22;838;51.794;12.258;2022-08-19T08:13:08;21.00;99.10
1680;DHT22;838;51.794;12.258;2022-08-19T08:15:33;21.00;99.30
1680;DHT22;838;51.794;12.258;2022-08-19T08:17:59;21.10;99.00
1680;DHT22;838;51.794;12.258;2022-08-19T08:20:25;21.20;98.80
1680;DHT22;838;51.794;12.258;2022-08-19T08:22:51;21.30;99.10
1680;DHT22;838;51.794;12.258;2022-08-19T08:25:36;21.40;98.30
1680;DHT22;838;51.794;12.258;2022-08-19T08:28:04;21.50;98.40
1680;DHT22;838;51.794;12.258;2022-08-19T08:30:30;21.60;98.00
1680;DHT22;838;51.794;12.258;2022-08-19T08:32:58;21.60;97.80
1680;DHT22;838;51.794;12.258;2022-08-19T08:35:24;21.70;97.90
1680;DHT22;838;51.794;12.258;2022-08-19T08:37:52;21.80;97.60
1680;DHT22;838;51.794;12.258;2022-08-19T08:42:57;22.00;97.00
1680;DHT22;838;51.794;12.258;2022-08-19T08:45:27;22.00;95.90
1680;DHT22;838;51.794;12.258;2022-08-19T08:47:56;22.00;96.10
1680;DHT22;838;51.794;12.258;2022-08-19T08:50:42;21.90;96.50
1680;DHT22;838;51.794;12.258;2022-08-19T08:53:09;21.70;96.30
1680;DHT22;838;51.794;12.258;2022-08-19T08:55:36;21.60;96.40
1680;DHT22;838;51.794;12.258;2022-08-19T08:58:11;21.50;96.80
1680;DHT22;838;51.794;12.258;2022-08-19T09:00:44;21.50;96.90
1680;DHT22;838;51.794;12.258;2022-08-19T09:03:22;21.30;96.90
1680;DHT22;838;51.794;12.258;2022-08-19T09:06:12;21.30;97.20
1680;DHT22;838;51.794;12.258;2022-08-19T09:17:10;21.50;97.30
1680;DHT22;838;51.794;12.258;2022-08-19T09:19:50;21.40;97.10
1680;DHT22;838;51.794;12.258;2022-08-19T09:22:16;21.30;96.80
1680;DHT22;838;51.794;12.258;2022-08-19T09:24:42;21.40;96.90
1680;DHT22;838;51.794;12.258;2022-08-19T09:27:08;21.10;96.80
1680;DHT22;838;51.794;12.258;2022-08-19T09:29:34;21.40;96.90
1680;DHT22;838;51.794;12.258;2022-08-19T09:31:59;21.50;96.90
1680;DHT22;838;51.794;12.258;2022-08-19T09:34:25;21.60;96.60
1680;DHT22;838;51.794;12.258;2022-08-19T09:36:51;21.70;96.30
1680;DHT22;838;51.794;12.258;2022-08-19T09:39:18;21.40;95.90
1680;DHT22;838;51.794;12.258;2022-08-19T09:41:44;21.30;96.30
1680;DHT22;838;51.794;12.258;2022-08-19T09:44:10;21.10;96.40
1680;DHT22;838;51.794;12.258;2022-08-19T09:46:37;21.40;95.90
1680;DHT22;838;51.794;12.258;2022-08-19T09:49:03;21.50;96.50
1680;DHT22;838;51.794;12.258;2022-08-19T09:51:31;21.50;95.30
1680;DHT22;838;51.794;12.258;2022-08-19T09:54:00;21.40;95.80
1680;DHT22;838;51.794;12.258;2022-08-19T09:56:27;21.40;95.60
1680;DHT22;838;51.794;12.258;2022-08-19T09:58:53;21.40;95.90
1680;DHT22;838;51.794;12.258;2022-08-19T10:01:24;21.50;95.90
1680;DHT22;838;51.794;12.258;2022-08-19T10:03:52;21.50;95.20
1680;DHT22;838;51.794;12.258;2022-08-19T10:06:19;21.50;95.30
1680;DHT22;838;51.794;12.258;2022-08-19T10:08:46;21.70;95.00
1680;DHT22;838;51.794;12.258;2022-08-19T10:11:12;21.90;94.90
1680;DHT22;838;51.794;12.258;2022-08-19T10:13:41;21.80;93.70
1680;DHT22;838;51.794;12.258;2022-08-19T10:16:10;21.90;93.60
1680;DHT22;838;51.794;12.258;2022-08-19T10:18:37;21.70;94.40
1680;DHT22;838;51.794;12.258;2022-08-19T10:21:13;21.70;94.40
1680;DHT22;838;51.794;12.258;2022-08-19T10:23:41;21.80;93.60
1680;DHT22;838;51.794;12.258;2022-08-19T10:26:16;21.90;93.50
1680;DHT22;838;51.794;12.258;2022-08-19T10:28:42;21.80;93.30
1680;DHT22;838;51.794;12.258;2022-08-19T10:31:18;21.70;94.10
1680;DHT22;838;51.794;12.258;2022-08-19T10:33:46;21.90;93.90
1680;DHT22;838;51.794;12.258;2022-08-19T10:36:17;22.10;93.20
1680;DHT22;838;51.794;12.258;2022-08-19T10:38:44;22.20;92.80
1680;DHT22;838;51.794;12.258;2022-08-19T10:41:16;22.30;92.60
1680;DHT22;838;51.794;12.258;2022-08-19T10:43:43;22.20;92.10
1680;DHT22;838;51.794;12.258;2022-08-19T10:46:12;22.10;92.10
1680;DHT22;838;51.794;12.258;2022-08-19T10:48:38;22.10;91.60
1680;DHT22;838;51.794;12.258;2022-08-19T10:51:04;22.10;92.00
1680;DHT22;838;51.794;12.258;2022-08-19T10:53:49;22.10;91.60
1680;DHT22;838;51.794;12.258;2022-08-19T10:56:15;22.00;92.10
1680;DHT22;838;51.794;12.258;2022-08-19T10:59:00;22.00;92.30
1680;DHT22;838;51.794;12.258;2022-08-19T11:01:29;22.10;92.20
1680;DHT22;838;51.794;12.258;2022-08-19T11:03:56;22.30;91.90
1680;DHT22;838;51.794;12.258;2022-08-19T11:06:25;22.30;91.20
1680;DHT22;838;51.794;12.258;2022-08-19T11:08:54;22.50;91.30
1680;DHT22;838;51.794;12.258;2022-08-19T11:11:21;22.80;88.40
1680;DHT22;838;51.794;12.258;2022-08-19T11:13:47;22.90;88.40
1680;DHT22;838;51.794;12.258;2022-08-19T11:16:23;23.10;88.20
1680;DHT22;838;51.794;12.258;2022-08-19T11:18:54;23.40;85.40
1680;DHT22;838;51.794;12.258;2022-08-19T11:21:24;23.40;85.20
1680;DHT22;838;51.794;12.258;2022-08-19T11:23:53;23.50;82.10
1680;DHT22;838;51.794;12.258;2022-08-19T11:26:23;23.60;81.50
1680;DHT22;838;51.794;12.258;2022-08-19T11:28:49;23.80;80.50
1680;DHT22;838;51.794;12.258;2022-08-19T11:31:25;23.80;80.00
1680;DHT22;838;51.794;12.258;2022-08-19T11:33:51;23.70;78.80
1680;DHT22;838;51.794;12.258;2022-08-19T11:36:19;23.70;78.20
1680;DHT22;838;51.794;12.258;2022-08-19T11:38:47;23.40;81.10
1680;DHT22;838;51.794;12.258;2022-08-19T11:41:14;23.30;82.50
1680;DHT22;838;51.794;12.258;2022-08-19T11:43:41;23.30;83.00
1680;DHT22;838;51.794;12.258;2022-08-19T11:46:10;23.20;84.40
1680;DHT22;838;51.794;12.258;2022-08-19T11:48:37;23.30;82.50
1680;DHT22;838;51.794;12.258;2022-08-19T11:51:10;23.20;83.10
1680;DHT22;838;51.794;12.258;2022-08-19T11:53:37;23.40;83.60
1680;DHT22;838;51.794;12.258;2022-08-19T11:56:04;23.40;81.10
1680;DHT22;838;51.794;12.258;2022-08-19T11:58:30;23.60;79.90
1680;DHT22;838;51.794;12.258;2022-08-19T12:00:58;23.70;78.70
1680;DHT22;838;51.794;12.258;2022-08-19T12:03:24;23.70;76.70
1680;DHT22;838;51.794;12.258;2022-08-19T12:05:50;23.70;77.00
1680;DHT22;838;51.794;12.258;2022-08-19T12:08:17;23.70;76.80
1680;DHT22;838;51.794;12.258;2022-08-19T12:10:43;23.70;75.20
1680;DHT22;838;51.794;12.258;2022-08-19T12:13:12;23.70;80.20
1680;DHT22;838;51.794;12.258;2022-08-19T12:15:45;23.80;79.50
1680;DHT22;838;51.794;12.258;2022-08-19T12:18:11;24.10;72.30
1680;DHT22;838;51.794;12.258;2022-08-19T12:20:40;23.90;74.20
1680;DHT22;838;51.794;12.258;2022-08-19T12:23:10;24.00;74.60
1680;DHT22;838;51.794;12.258;2022-08-19T12:25:44;24.00;75.00
1680;DHT22;838;51.794;12.258;2022-08-19T12:28:19;24.00;76.70
1680;DHT22;838;51.794;12.258;2022-08-19T12:30:45;24.30;72.90
1680;DHT22;838;51.794;12.258;2022-08-19T12:33:11;24.20;75.10
1680;DHT22;838;51.794;12.258;2022-08-19T12:35:43;24.30;73.20
1680;DHT22;838;51.794;12.258;2022-08-19T12:38:21;24.60;71.70
1680;DHT22;838;51.794;12.258;2022-08-19T12:40:51;24.60;69.30
1680;DHT22;838;51.794;12.258;2022-08-19T12:43:22;24.60;69.70
1680;DHT22;838;51.794;12.258;2022-08-19T12:45:48;24.50;69.50
1680;DHT22;838;51.794;12.258;2022-08-19T12:48:14;24.50;69.20
1680;DHT22;838;51.794;12.258;2022-08-19T12:50:44;24.70;66.50
1680;DHT22;838;51.794;12.258;2022-08-19T12:53:11;24.70;65.90
1680;DHT22;838;51.794;12.258;2022-08-19T12:55:41;24.50;66.80
1680;DHT22;838;51.794;12.258;2022-08-19T12:58:10;24.50;69.70
1680;DHT22;838;51.794;12.258;2022-08-19T13:00:38;24.20;71.50
1680;DHT22;838;51.794;12.258;2022-08-19T13:03:04;24.20;75.80
1680;DHT22;838;51.794;12.258;2022-08-19T13:05:33;24.10;75.10
1680;DHT22;838;51.794;12.258;2022-08-19T13:08:00;24.10;75.30
1680;DHT22;838;51.794;12.258;2022-08-19T13:10:34;24.40;70.80
1680;DHT22;838;51.794;12.258;2022-08-19T13:13:06;24.60;69.00
1680;DHT22;838;51.794;12.258;2022-08-19T13:15:40;24.70;63.80
1680;DHT22;838;51.794;12.258;2022-08-19T13:18:08;24.70;65.10
1680;DHT22;838;51.794;12.258;2022-08-19T13:20:42;24.70;65.70
1680;DHT22;838;51.794;12.258;2022-08-19T13:23:12;24.50;66.30
1680;DHT22;838;51.794;12.258;2022-08-19T13:25:43;24.60;67.60
1680;DHT22;838;51.794;12.258;2022-08-19T13:28:09;24.80;64.20
1680;DHT22;838;51.794;12.258;2022-08-19T13:30:35;24.70;67.50
1680;DHT22;838;51.794;12.258;2022-08-19T13:33:20;24.80;67.20
1680;DHT22;838;51.794;12.258;2022-08-19T13:35:59;24.50;68.20
1680;DHT22;838;51.794;12.258;2022-08-19T13:38:27;24.60;67.90
1680;DHT22;838;51.794;12.258;2022-08-19T13:40:55;24.60;70.30
1680;DHT22;838;51.794;12.258;2022-08-19T13:43:23;24.50;66.80
1680;DHT22;838;51.794;12.258;2022-08-19T13:45:53;24.40;64.80
1680;DHT22;838;51.794;12.258;2022-08-19T13:48:20;24.40;66.10
1680;DHT22;838;51.794;12.258;2022-08-19T13:50:52;24.40;67.90
1680;DHT22;838;51.794;12.258;2022-08-19T13:53:22;24.40;70.60
1680;DHT22;838;51.794;12.258;2022-08-19T13:55:48;24.90;63.60
1680;DHT22;838;51.794;12.258;2022-08-19T13:58:16;25.20;62.10
1680;DHT22;838;51.794;12.258;2022-08-19T14:00:45;25.10;59.10
1680;DHT22;838;51.794;12.258;2022-08-19T14:03:11;25.00;60.50
1680;DHT22;838;51.794;12.258;2022-08-19T14:05:40;25.00;63.30
1680;DHT22;838;51.794;12.258;2022-08-19T14:08:06;25.10;56.20
1680;DHT22;838;51.794;12.258;2022-08-19T14:10:33;25.30;56.40
1680;DHT22;838;51.794;12.258;2022-08-19T14:13:01;25.30;56.10
1680;DHT22;838;51.794;12.258;2022-08-19T14:15:29;25.50;55.70
1680;DHT22;838;51.794;12.258;2022-08-19T14:17:55;25.10;55.30
1680;DHT22;838;51.794;12.258;2022-08-19T14:20:21;24.90;61.50
1680;DHT22;838;51.794;12.258;2022-08-19T14:22:48;24.60;62.50
1680;DHT22;838;51.794;12.258;2022-08-19T14:25:26;24.50;64.60
1680;DHT22;838;51.794;12.258;2022-08-19T14:27:53;24.50;65.90
1680;DHT22;838;51.794;12.258;2022-08-19T14:30:22;24.30;66.80
1680;DHT22;838;51.794;12.258;2022-08-19T14:32:48;24.40;64.50
1680;DHT22;838;51.794;12.258;2022-08-19T14:35:16;24.60;63.80
1680;DHT22;838;51.794;12.258;2022-08-19T14:37:45;24.70;59.00
1680;DHT22;838;51.794;12.258;2022-08-19T14:40:17;25.00;59.10
1680;DHT22;838;51.794;12.258;2022-08-19T14:42:43;25.10;55.30
1680;DHT22;838;51.794;12.258;2022-08-19T14:45:14;25.10;56.30
1680;DHT22;838;51.794;12.258;2022-08-19T14:47:40;25.10;55.70
1680;DHT22;838;51.794;12.258;2022-08-19T14:50:08;25.30;54.50
1680;DHT22;838;51.794;12.258;2022-08-19T14:52:37;25.60;48.60
1680;DHT22;838;51.794;12.258;2022-08-19T14:55:06;25.70;47.80
1680;DHT22;838;51.794;12.258;2022-08-19T14:57:32;25.60;46.50
1680;DHT22;838;51.794;12.258;2022-08-19T15:00:04;25.50;49.00
1680;DHT22;838;51.794;12.258;2022-08-19T15:02:30;25.40;49.80
1680;DHT22;838;51.794;12.258;2022-08-19T15:04:56;25.30;49.40
1680;DHT22;838;51.794;12.258;2022-08-19T15:07:25;25.30;52.90
1680;DHT22;838;51.794;12.258;2022-08-19T15:09:51;25.10;54.00
1680;DHT22;838;51.794;12.258;2022-08-19T15:12:20;24.80;57.70
1680;DHT22;838;51.794;12.258;2022-08-19T15:14:48;24.70;57.90
1680;DHT22;838;51.794;12.258;2022-08-19T15:17:16;24.70;58.70
1680;DHT22;838;51.794;12.258;2022-08-19T15:19:43;24.40;61.00
1680;DHT22;838;51.794;12.258;2022-08-19T15:22:15;24.40;61.50
1680;DHT22;838;51.794;12.258;2022-08-19T15:24:47;24.20;63.30
1680;DHT22;838;51.794;12.258;2022-08-19T15:27:29;24.20;64.60
1680;DHT22;838;51.794;12.258;2022-08-19T15:29:55;24.30;63.50
1680;DHT22;838;51.794;12.258;2022-08-19T15:32:22;24.40;61.10
1680;DHT22;838;51.794;12.258;2022-08-19T15:34:52;24.30;63.90
1680;DHT22;838;51.794;12.258;2022-08-19T15:37:23;24.30;61.80
1680;DHT22;838;51.794;12.258;2022-08-19T15:39:50;24.00;67.10
1680;DHT22;838;51.794;12.258;2022-08-19T15:42:16;24.00;68.90
1680;DHT22;838;51.794;12.258;2022-08-19T15:44:42;23.90;69.60
1680;DHT22;838;51.794;12.258;2022-08-19T15:47:08;23.80;69.80
1680;DHT22;838;51.794;12.258;2022-08-19T15:49:34;23.70;70.20
1680;DHT22;838;51.794;12.258;2022-08-19T15:52:03;23.70;70.20
1680;DHT22;838;51.794;12.258;2022-08-19T15:54:30;23.80;68.40
1680;DHT22;838;51.794;12.258;2022-08-19T15:56:56;23.80;68.60
1680;DHT22;838;51.794;12.258;2022-08-19T15:59:40;23.80;68.40
1680;DHT22;838;51.794;12.258;2022-08-19T16:02:28;23.90;67.80
1680;DHT22;838;51.794;12.258;2022-08-19T16:05:16;23.80;68.20
1680;DHT22;838;51.794;12.258;2022-08-19T16:08:00;23.80;67.80
1680;DHT22;838;51.794;12.258;2022-08-19T16:10:31;24.00;68.30
1680;DHT22;838;51.794;12.258;2022-08-19T16:13:08;24.10;67.30
1680;DHT22;838;51.794;12.258;2022-08-19T16:15:38;24.10;65.90
1680;DHT22;838;51.794;12.258;2022-08-19T16:18:06;24.10;65.50
1680;DHT22;838;51.794;12.258;2022-08-19T16:20:32;24.00;68.90
1680;DHT22;838;51.794;12.258;2022-08-19T16:23:01;23.80;67.60
1680;DHT22;838;51.794;12.258;2022-08-19T16:25:29;23.80;69.20
1680;DHT22;838;51.794;12.258;2022-08-19T16:27:58;23.80;68.70